Time;durP1;ratioP1;P1;durP2;ratioP2;P2;SDS_P1;SDS_P2;PMS_P1;PMS_P2;Temp;Humidity;BMP_temperature;BMP_pressure;BME280_temperature;BME280_humidity;BME280_pressure;Samples;Min_cycle;Max_cycle;Signal;HPM_P1;HPM_P2
2022/03/29 00:01:10;;;;;;;41.80;20.77;;;7.50;99.90;;;;;;5031802;28;20212;-74
2022/03/29 00:03:36;;;;;;;42.70;19.70;;;7.40;99.90;;;;;;5032091;28;20179;-73
2022/03/29 00:06:02;;;;;;;41.23;18.67;;;7.30;99.90;;;;;;5032023;28;20208;-73
2022/03/29 00:08:27;;;;;;;38.30;19.37;;;7.10;99.90;;;;;;5031932;28;20174;-73
2022/03/29 00:10:53;;;;;;;41.87;18.90;;;7.00;99.90;;;;;;5031893;28;20518;-74
2022/03/29 00:13:19;;;;;;;38.00;18.93;;;7.10;99.90;;;;;;5031535;28;20228;-73
2022/03/29 00:15:45;;;;;;;40.50;19.53;;;7.20;99.90;;;;;;5031592;28;20180;-73
2022/03/29 00:18:11;;;;;;;41.40;19.63;;;7.10;99.90;;;;;;5031966;28;20661;-73
2022/03/29 00:20:36;;;;;;;41.97;19.53;;;7.00;99.90;;;;;;5031590;28;20715;-73
2022/03/29 00:23:03;;;;;;;40.63;18.40;;;7.00;99.90;;;;;;5031108;28;20194;-73
2022/03/29 00:25:29;;;;;;;43.10;19.37;;;7.00;99.90;;;;;;5031698;28;20175;-74
2022/03/29 00:27:54;;;;;;;36.30;18.53;;;7.00;99.90;;;;;;5031569;28;20182;-73
2022/03/29 00:30:20;;;;;;;43.40;18.70;;;6.90;99.90;;;;;;5031390;28;20568;-73
2022/03/29 00:32:46;;;;;;;41.10;18.23;;;6.90;99.90;;;;;;5031342;28;20231;-73
2022/03/29 00:35:12;;;;;;;40.00;18.10;;;6.80;99.90;;;;;;5031028;28;20181;-73
2022/03/29 00:37:39;;;;;;;39.73;18.80;;;6.90;99.90;;;;;;5031775;28;20179;-73
2022/03/29 00:40:06;;;;;;;40.47;18.07;;;7.10;99.90;;;;;;5032569;28;20272;-73
2022/03/29 00:42:32;;;;;;;42.23;20.00;;;6.90;99.90;;;;;;5030518;28;20611;-74
2022/03/29 00:44:58;;;;;;;42.87;18.73;;;6.80;99.90;;;;;;5031242;28;20267;-74
2022/03/29 00:47:24;;;;;;;39.30;18.47;;;6.90;99.90;;;;;;5031292;28;20272;-74
2022/03/29 00:49:50;;;;;;;42.30;19.67;;;7.00;99.90;;;;;;5031160;28;20265;-73
2022/03/29 00:52:17;;;;;;;49.77;19.33;;;7.00;99.90;;;;;;5031009;28;20575;-73
2022/03/29 00:54:43;;;;;;;47.73;20.97;;;6.90;99.90;;;;;;5031083;28;20662;-74
2022/03/29 00:57:11;;;;;;;44.70;20.53;;;7.10;99.90;;;;;;5030866;28;20176;-74
2022/03/29 00:59:39;;;;;;;47.53;21.97;;;7.00;99.90;;;;;;5030780;28;20434;-73
2022/03/29 01:02:05;;;;;;;44.30;21.30;;;6.90;99.90;;;;;;5030849;28;20171;-73
2022/03/29 01:04:32;;;;;;;52.87;21.97;;;6.80;99.90;;;;;;5030963;28;20176;-74
2022/03/29 01:06:58;;;;;;;50.40;22.67;;;6.60;99.90;;;;;;5030981;28;20183;-73
2022/03/29 01:09:29;;;;;;;48.83;22.47;;;6.70;99.90;;;;;;5030838;28;20193;-73
2022/03/29 01:11:56;;;;;;;49.20;22.97;;;6.60;99.90;;;;;;5030789;28;20515;-73
2022/03/29 01:14:23;;;;;;;51.93;22.47;;;6.60;99.90;;;;;;5030843;28;20177;-73
2022/03/29 01:19:36;;;;;;;51.20;22.40;;;6.50;99.90;;;;;;5032312;28;20219;-73
2022/03/29 01:22:09;;;;;;;51.63;22.03;;;6.50;99.90;;;;;;5030284;28;20673;-73
2022/03/29 01:24:37;;;;;;;53.70;22.73;;;6.60;99.90;;;;;;5030792;28;20211;-73
2022/03/29 01:27:05;;;;;;;50.97;23.00;;;6.50;99.90;;;;;;5030759;28;20172;-73
2022/03/29 01:29:32;;;;;;;49.67;21.20;;;6.60;99.90;;;;;;5030548;28;20201;-73
2022/03/29 01:32:02;;;;;;;53.80;22.33;;;6.60;99.90;;;;;;5030412;28;20178;-73
2022/03/29 01:34:28;;;;;;;57.20;22.57;;;6.50;99.90;;;;;;5030472;28;20176;-73
2022/03/29 01:36:54;;;;;;;52.30;20.83;;;6.50;99.90;;;;;;5030513;28;20177;-73
2022/03/29 01:39:20;;;;;;;56.30;22.17;;;6.40;99.90;;;;;;5030587;28;20602;-74
2022/03/29 01:41:46;;;;;;;53.77;22.10;;;6.40;99.90;;;;;;5030065;28;20257;-73
2022/03/29 01:44:12;;;;;;;51.00;22.07;;;6.60;99.90;;;;;;5030609;28;20178;-73
2022/03/29 01:46:38;;;;;;;52.27;21.23;;;6.40;99.90;;;;;;5030522;28;20252;-73
2022/03/29 01:49:05;;;;;;;52.50;21.67;;;6.50;99.90;;;;;;5030406;28;20206;-73
2022/03/29 01:51:31;;;;;;;54.57;22.90;;;6.40;99.90;;;;;;5030370;28;20179;-73
2022/03/29 01:54:05;;;;;;;55.17;22.83;;;6.40;99.90;;;;;;5030565;28;20189;-73
2022/03/29 01:56:32;;;;;;;59.60;23.90;;;6.40;99.90;;;;;;5030558;28;20202;-73
2022/03/29 01:58:58;;;;;;;58.10;23.83;;;6.30;99.90;;;;;;5030400;28;20740;-73
2022/03/29 02:01:24;;;;;;;53.40;23.30;;;6.40;99.90;;;;;;5029845;28;20226;-73
2022/03/29 02:03:50;;;;;;;55.80;22.90;;;6.40;99.90;;;;;;5030001;28;20630;-73
2022/03/29 02:06:16;;;;;;;57.47;24.03;;;6.50;99.90;;;;;;5030016;28;20263;-73
2022/03/29 02:08:42;;;;;;;59.03;23.27;;;6.50;99.90;;;;;;5029929;28;20198;-74
2022/03/29 02:11:08;;;;;;;57.87;23.40;;;6.50;99.90;;;;;;5029995;28;20199;-73
2022/03/29 02:13:34;;;;;;;59.87;25.00;;;6.60;99.90;;;;;;5029573;28;20598;-73
2022/03/29 02:16:00;;;;;;;58.93;24.47;;;6.60;99.90;;;;;;5030011;28;20206;-72
2022/03/29 02:18:26;;;;;;;59.20;25.37;;;6.50;99.90;;;;;;5029572;28;20657;-73
2022/03/29 02:20:52;;;;;;;70.77;26.23;;;6.60;99.90;;;;;;5031466;28;20205;-73
2022/03/29 02:23:17;;;;;;;69.37;25.13;;;6.50;99.90;;;;;;5033633;28;20308;-72
2022/03/29 02:25:46;;;;;;;67.10;25.90;;;6.60;99.90;;;;;;5033929;28;20269;-73
2022/03/29 02:28:12;;;;;;;76.73;26.47;;;6.60;99.90;;;;;;5033933;28;20183;-73
2022/03/29 02:30:37;;;;;;;63.20;25.43;;;6.70;99.90;;;;;;5033804;28;20294;-73
2022/03/29 02:33:04;;;;;;;62.20;25.77;;;6.60;99.90;;;;;;5033553;28;20177;-72
2022/03/29 02:35:30;;;;;;;69.20;25.70;;;6.60;99.90;;;;;;5033791;28;20309;-73
2022/03/29 02:37:56;;;;;;;62.93;25.00;;;6.50;99.90;;;;;;5033885;28;20747;-73
2022/03/29 02:40:22;;;;;;;61.23;25.03;;;6.60;99.90;;;;;;5033572;28;20229;-73
2022/03/29 02:42:53;;;;;;;61.17;25.30;;;6.80;99.90;;;;;;5033255;28;20283;-73
2022/03/29 02:45:21;;;;;;;55.43;24.93;;;6.70;99.90;;;;;;5033646;28;20171;-74
2022/03/29 02:47:50;;;;;;;63.83;24.33;;;6.70;99.90;;;;;;5033487;28;20229;-73
2022/03/29 02:50:17;;;;;;;71.10;25.60;;;6.60;99.90;;;;;;5033488;28;20201;-73
2022/03/29 02:52:46;;;;;;;65.53;26.93;;;6.70;99.90;;;;;;5033370;28;20229;-73
2022/03/29 02:55:12;;;;;;;53.20;23.50;;;6.60;99.90;;;;;;5033429;28;20547;-73
2022/03/29 02:57:38;;;;;;;61.90;25.30;;;6.70;99.90;;;;;;5033307;28;20206;-73
2022/03/29 03:00:07;;;;;;;70.00;24.93;;;6.80;99.90;;;;;;5033146;28;20203;-73
2022/03/29 03:02:33;;;;;;;62.20;24.43;;;6.80;99.90;;;;;;5033188;28;20176;-73
2022/03/29 03:05:00;;;;;;;64.83;25.73;;;7.00;99.90;;;;;;5033242;28;20171;-73
2022/03/29 03:07:26;;;;;;;65.07;24.77;;;7.00;99.90;;;;;;5033085;28;20236;-73
2022/03/29 03:09:52;;;;;;;59.03;24.23;;;7.10;99.90;;;;;;5033037;28;20190;-73
2022/03/29 03:12:18;;;;;;;77.43;26.57;;;7.20;99.90;;;;;;5032892;28;20321;-73
2022/03/29 03:14:44;;;;;;;63.27;24.67;;;7.20;99.90;;;;;;5032908;28;20261;-73
2022/03/29 03:17:09;;;;;;;64.40;25.10;;;7.10;99.90;;;;;;5033046;28;20270;-73
2022/03/29 03:19:35;;;;;;;70.80;26.80;;;7.10;99.90;;;;;;5033029;28;20305;-73
2022/03/29 03:22:00;;;;;;;63.83;25.43;;;6.90;99.90;;;;;;5032297;28;20678;-73
2022/03/29 03:24:26;;;;;;;65.73;25.07;;;6.70;99.90;;;;;;5032850;28;20173;-73
2022/03/29 03:26:52;;;;;;;69.27;25.73;;;6.60;99.90;;;;;;5032835;28;20631;-73
2022/03/29 03:29:17;;;;;;;57.57;24.67;;;6.60;99.90;;;;;;5032692;28;20251;-73
2022/03/29 03:31:43;;;;;;;59.60;23.63;;;6.60;99.90;;;;;;5031702;28;20759;-73
2022/03/29 03:34:09;;;;;;;56.20;24.40;;;6.70;99.90;;;;;;5032484;28;20188;-73
2022/03/29 03:36:34;;;;;;;53.77;22.60;;;6.90;99.90;;;;;;5032652;28;20178;-73
2022/03/29 03:39:00;;;;;;;55.43;23.00;;;6.80;99.90;;;;;;5032622;28;20201;-73
2022/03/29 03:41:25;;;;;;;62.93;25.07;;;6.80;99.90;;;;;;5032162;28;20620;-73
2022/03/29 03:43:51;;;;;;;58.77;24.47;;;7.00;99.90;;;;;;5032443;28;20176;-73
2022/03/29 03:46:17;;;;;;;67.27;25.73;;;7.00;99.90;;;;;;5032432;28;20635;-73
2022/03/29 03:48:42;;;;;;;61.60;25.90;;;7.00;99.90;;;;;;5032354;28;20239;-73
2022/03/29 03:51:08;;;;;;;65.70;25.43;;;6.80;99.90;;;;;;5032228;28;20643;-73
2022/03/29 03:53:33;;;;;;;61.80;24.77;;;6.90;99.90;;;;;;5033707;28;20178;-73
2022/03/29 03:55:59;;;;;;;61.53;26.00;;;6.80;99.90;;;;;;5032176;28;20188;-73
2022/03/29 03:58:25;;;;;;;64.03;25.97;;;6.60;99.90;;;;;;5032122;28;20179;-73
2022/03/29 04:00:50;;;;;;;68.60;26.43;;;6.50;99.90;;;;;;5032018;28;20736;-73
2022/03/29 04:03:17;;;;;;;64.07;26.33;;;6.40;99.90;;;;;;5031918;28;20175;-72
2022/03/29 04:05:43;;;;;;;62.47;26.17;;;6.60;99.90;;;;;;5032031;28;20692;-73
2022/03/29 04:08:08;;;;;;;72.57;28.13;;;6.60;99.90;;;;;;5032077;28;20229;-73
2022/03/29 04:10:34;;;;;;;57.77;23.80;;;6.50;99.90;;;;;;5031975;28;20201;-72
2022/03/29 04:13:01;;;;;;;67.37;25.03;;;6.50;99.90;;;;;;5031959;28;20526;-73
2022/03/29 04:15:27;;;;;;;61.33;25.53;;;6.50;99.90;;;;;;5032078;28;20182;-72
2022/03/29 04:17:52;;;;;;;61.03;24.07;;;6.50;99.90;;;;;;5031809;28;20186;-73
2022/03/29 04:20:18;;;;;;;59.00;24.60;;;6.60;99.90;;;;;;5031693;28;20204;-73
2022/03/29 04:22:44;;;;;;;64.93;25.37;;;6.50;99.90;;;;;;5032466;28;20199;-73
2022/03/29 04:25:10;;;;;;;59.30;23.07;;;6.60;99.90;;;;;;5031754;28;20174;-73
2022/03/29 04:27:36;;;;;;;56.67;23.93;;;6.50;99.90;;;;;;5031620;28;20177;-73
2022/03/29 04:30:02;;;;;;;58.30;25.30;;;6.50;99.90;;;;;;5031664;28;20290;-73
2022/03/29 04:32:28;;;;;;;59.67;25.33;;;6.60;99.90;;;;;;5031458;28;20186;-73
2022/03/29 04:34:53;;;;;;;67.33;27.27;;;6.80;99.90;;;;;;5031521;28;20224;-73
2022/03/29 04:37:20;;;;;;;61.00;24.80;;;6.70;99.90;;;;;;5032505;28;20171;-73
2022/03/29 04:39:46;;;;;;;62.47;24.63;;;6.70;99.90;;;;;;5031271;28;20250;-73
2022/03/29 04:42:11;;;;;;;61.03;24.83;;;6.70;99.90;;;;;;5030816;28;20171;-73
2022/03/29 04:44:37;;;;;;;55.90;24.50;;;6.70;99.90;;;;;;5031119;28;20581;-73
2022/03/29 04:47:04;;;;;;;60.67;24.30;;;6.70;99.90;;;;;;5031349;28;20229;-72
2022/03/29 04:49:30;;;;;;;63.67;25.87;;;6.60;99.90;;;;;;5031284;28;20195;-74
2022/03/29 04:51:56;;;;;;;66.27;25.97;;;6.60;99.90;;;;;;5031177;28;20633;-73
2022/03/29 04:54:21;;;;;;;57.73;24.20;;;6.60;99.90;;;;;;5031875;28;20177;-73
2022/03/29 04:56:47;;;;;;;62.63;24.03;;;6.50;99.90;;;;;;5031886;28;20269;-73
2022/03/29 04:59:14;;;;;;;59.87;24.03;;;6.50;99.90;;;;;;5031536;28;20615;-73
2022/03/29 05:01:40;;;;;;;65.83;26.13;;;6.50;99.90;;;;;;5030910;28;20203;-74
2022/03/29 05:04:05;;;;;;;59.07;24.87;;;6.50;99.90;;;;;;5031145;28;20639;-73
2022/03/29 05:06:31;;;;;;;58.07;24.23;;;6.20;99.90;;;;;;5031094;28;20183;-73
2022/03/29 05:08:57;;;;;;;57.07;23.80;;;6.20;99.90;;;;;;5030738;28;20201;-73
2022/03/29 05:11:22;;;;;;;59.67;25.53;;;6.30;99.90;;;;;;5030764;28;20179;-73
2022/03/29 05:13:49;;;;;;;55.40;23.67;;;6.30;99.90;;;;;;5031083;28;20186;-72
2022/03/29 05:16:15;;;;;;;56.80;23.30;;;6.10;99.90;;;;;;5032643;28;20180;-74
2022/03/29 05:18:44;;;;;;;60.00;23.80;;;6.30;99.90;;;;;;5030854;28;20207;-73
2022/03/29 05:21:10;;;;;;;59.00;24.03;;;6.50;99.90;;;;;;5030327;28;20268;-74
2022/03/29 05:23:36;;;;;;;63.33;25.70;;;6.50;99.90;;;;;;5032179;28;20174;-73
2022/03/29 05:26:01;;;;;;;59.80;24.07;;;6.40;99.90;;;;;;5030740;28;20270;-73
2022/03/29 05:28:27;;;;;;;60.90;24.70;;;6.30;99.90;;;;;;5030735;28;20183;-73
2022/03/29 05:30:52;;;;;;;68.03;24.50;;;6.30;99.90;;;;;;5030655;28;20175;-73
2022/03/29 05:33:18;;;;;;;60.97;24.47;;;6.40;99.90;;;;;;5030609;28;20233;-73
2022/03/29 05:35:45;;;;;;;57.90;25.00;;;6.40;99.90;;;;;;5030521;28;20178;-73
2022/03/29 05:38:11;;;;;;;64.53;26.50;;;6.30;99.90;;;;;;5030784;28;20187;-75
2022/03/29 05:40:38;;;;;;;64.27;24.67;;;6.40;99.90;;;;;;5030578;28;20288;-76
2022/03/29 05:43:07;;;;;;;56.87;23.77;;;6.40;99.90;;;;;;5029958;28;20204;-76
2022/03/29 05:45:33;;;;;;;54.53;21.87;;;6.20;99.90;;;;;;5030686;28;20228;-76
2022/03/29 05:50:42;;;;;;;56.10;22.80;;;6.20;99.90;;;;;;5032038;28;20598;-76
2022/03/29 05:53:08;;;;;;;58.50;22.73;;;6.10;99.90;;;;;;5030366;28;20179;-76
2022/03/29 05:55:34;;;;;;;56.00;22.63;;;6.10;99.90;;;;;;5031773;28;20576;-76
2022/03/29 05:58:00;;;;;;;56.47;22.43;;;6.00;99.90;;;;;;5034563;28;20184;-76
2022/03/29 06:00:27;;;;;;;56.10;21.20;;;6.00;99.90;;;;;;5034353;28;20206;-75
2022/03/29 06:02:53;;;;;;;55.27;21.40;;;5.90;99.90;;;;;;5034221;28;20200;-75
2022/03/29 06:05:19;;;;;;;54.67;20.40;;;6.00;99.90;;;;;;5034548;28;20187;-75
2022/03/29 06:07:45;;;;;;;52.90;21.27;;;5.90;99.90;;;;;;5034209;28;20238;-76
2022/03/29 06:10:11;;;;;;;50.53;20.70;;;5.90;99.90;;;;;;5034111;28;20285;-76
2022/03/29 06:12:37;;;;;;;53.90;21.17;;;5.80;99.90;;;;;;5033999;28;20264;-74
2022/03/29 06:15:04;;;;;;;54.03;20.20;;;6.10;99.90;;;;;;5034072;28;20185;-76
2022/03/29 06:17:30;;;;;;;49.87;18.73;;;6.10;99.90;;;;;;5034253;28;20265;-75
2022/03/29 06:19:55;;;;;;;54.90;19.70;;;6.20;99.90;;;;;;5033902;28;20288;-76
2022/03/29 06:22:22;;;;;;;49.10;20.93;;;6.10;99.90;;;;;;5033370;28;20247;-76
2022/03/29 06:24:48;;;;;;;49.93;19.63;;;6.10;99.90;;;;;;5034033;28;20178;-76
2022/03/29 06:27:14;;;;;;;54.20;20.60;;;6.10;99.90;;;;;;5034009;28;20543;-76
2022/03/29 06:29:40;;;;;;;45.17;18.93;;;6.10;99.90;;;;;;5034183;28;20526;-76
2022/03/29 06:32:06;;;;;;;50.10;20.70;;;6.10;99.90;;;;;;5033753;28;20174;-76
2022/03/29 06:34:31;;;;;;;51.77;22.23;;;6.00;99.90;;;;;;5033715;28;20250;-78
2022/03/29 06:36:58;;;;;;;49.13;20.73;;;6.00;99.90;;;;;;5033804;28;20178;-77
2022/03/29 06:39:23;;;;;;;56.13;20.50;;;5.90;99.90;;;;;;5033756;28;20325;-77
2022/03/29 06:41:50;;;;;;;54.73;20.37;;;6.00;99.90;;;;;;5032939;28;20637;-78
2022/03/29 06:44:17;;;;;;;52.17;20.20;;;6.10;99.90;;;;;;5033612;28;20635;-76
2022/03/29 06:46:43;;;;;;;58.23;21.57;;;6.00;99.90;;;;;;5033516;28;20182;-76
2022/03/29 06:49:09;;;;;;;55.77;22.20;;;6.10;99.90;;;;;;5033498;28;20202;-74
2022/03/29 06:51:36;;;;;;;56.60;22.07;;;6.10;99.90;;;;;;5033356;28;20562;-74
2022/03/29 06:54:04;;;;;;;57.30;21.97;;;6.30;99.90;;;;;;5033476;28;20209;-75
2022/03/29 06:56:30;;;;;;;55.83;21.03;;;6.10;99.90;;;;;;5033429;28;20340;-76
2022/03/29 06:58:58;;;;;;;59.83;21.83;;;6.10;99.90;;;;;;5033222;28;20200;-74
2022/03/29 07:01:23;;;;;;;62.23;22.07;;;6.30;99.90;;;;;;5033187;28;20205;-74
2022/03/29 07:03:49;;;;;;;63.67;22.97;;;6.20;99.90;;;;;;5033059;28;20844;-74
2022/03/29 07:06:15;;;;;;;57.90;22.10;;;6.10;99.90;;;;;;5033082;28;20198;-74
2022/03/29 07:11:26;;;;;;;60.83;22.13;;;6.20;99.90;;;;;;5023040;28;20198;-74
2022/03/29 07:13:53;;;;;;;54.67;20.73;;;6.20;99.90;;;;;;5032919;28;20228;-76
2022/03/29 07:16:20;;;;;;;57.63;22.57;;;6.30;99.90;;;;;;5032840;28;20178;-74
2022/03/29 07:18:46;;;;;;;54.30;21.87;;;6.30;99.90;;;;;;5032891;28;20194;-74
2022/03/29 07:21:11;;;;;;;52.23;21.13;;;6.30;99.90;;;;;;5031986;28;20843;-76
2022/03/29 07:23:38;;;;;;;53.40;21.83;;;6.30;99.90;;;;;;5032832;28;20190;-75
2022/03/29 07:26:05;;;;;;;63.17;23.27;;;6.40;99.90;;;;;;5029893;28;20678;-76
2022/03/29 07:28:30;;;;;;;61.80;23.27;;;6.40;99.90;;;;;;5032245;28;20630;-75
2022/03/29 07:30:56;;;;;;;57.13;22.03;;;6.30;99.90;;;;;;5032082;28;20209;-77
2022/03/29 07:33:22;;;;;;;51.47;20.33;;;6.50;99.90;;;;;;5032166;28;20274;-76
2022/03/29 07:35:49;;;;;;;60.67;23.07;;;6.40;99.90;;;;;;5032979;28;20699;-73
2022/03/29 07:38:15;;;;;;;56.83;21.77;;;6.50;99.90;;;;;;5031802;28;20249;-76
2022/03/29 07:40:42;;;;;;;49.93;22.20;;;6.60;99.90;;;;;;5031732;28;20206;-76
2022/03/29 07:43:10;;;;;;;58.07;22.33;;;6.50;99.90;;;;;;5031597;28;20178;-74
2022/03/29 07:45:37;;;;;;;53.13;20.37;;;6.40;99.90;;;;;;5031842;28;20182;-74
2022/03/29 07:48:03;;;;;;;48.23;20.07;;;6.40;99.90;;;;;;5031861;28;20262;-74
2022/03/29 07:50:31;;;;;;;56.83;23.10;;;6.40;99.90;;;;;;5031689;28;20198;-74
2022/03/29 07:52:59;;;;;;;59.10;20.97;;;6.70;99.90;;;;;;5031718;28;20182;-74
2022/03/29 07:55:26;;;;;;;52.37;21.23;;;6.70;99.90;;;;;;5030589;28;20264;-74
2022/03/29 07:57:51;;;;;;;52.47;20.10;;;6.80;99.90;;;;;;5030521;28;20224;-74
2022/03/29 08:00:33;;;;;;;51.47;19.73;;;6.70;99.90;;;;;;5029347;28;20246;-74
2022/03/29 08:03:08;;;;;;;48.73;20.37;;;6.80;99.90;;;;;;5030729;28;20183;-74
2022/03/29 08:05:35;;;;;;;57.93;20.50;;;6.70;99.90;;;;;;5030659;28;20544;-74
2022/03/29 08:08:02;;;;;;;51.87;20.87;;;7.00;99.90;;;;;;5031105;28;20186;-74
2022/03/29 08:10:30;;;;;;;50.63;20.43;;;6.80;99.90;;;;;;5030585;28;20747;-74
2022/03/29 08:13:04;;;;;;;53.83;21.27;;;6.90;99.90;;;;;;5042144;28;20652;-74
2022/03/29 08:15:31;;;;;;;55.07;21.07;;;6.80;99.90;;;;;;5049366;28;20180;-74
2022/03/29 08:17:57;;;;;;;51.10;21.23;;;7.00;99.90;;;;;;5029222;28;20184;-74
2022/03/29 08:20:23;;;;;;;49.67;20.07;;;7.00;99.90;;;;;;5030546;28;20210;-74
2022/03/29 08:22:49;;;;;;;45.97;20.37;;;6.70;99.90;;;;;;5030381;28;20553;-74
2022/03/29 08:25:18;;;;;;;51.17;20.47;;;6.70;99.90;;;;;;5029990;28;20177;-74
2022/03/29 08:27:45;;;;;;;55.70;20.47;;;6.80;99.90;;;;;;5044871;28;20191;-74
2022/03/29 08:30:12;;;;;;;50.30;21.17;;;7.00;99.90;;;;;;5050520;28;20203;-74
2022/03/29 08:32:45;;;;;;;47.70;19.43;;;7.10;99.90;;;;;;5042143;28;20191;-74
2022/03/29 08:35:12;;;;;;;48.30;20.30;;;7.20;99.90;;;;;;5050186;28;20181;-74
2022/03/29 08:37:39;;;;;;;51.60;20.40;;;7.10;99.90;;;;;;5049178;28;20211;-76
2022/03/29 08:40:12;;;;;;;46.50;19.40;;;7.30;99.90;;;;;;5049690;28;20290;-77
2022/03/29 08:42:40;;;;;;;44.50;20.10;;;7.30;99.90;;;;;;5010680;28;20266;-77
2022/03/29 08:45:14;;;;;;;50.07;19.40;;;7.20;99.90;;;;;;5028084;28;20706;-76
2022/03/29 08:47:42;;;;;;;48.17;18.63;;;7.50;99.90;;;;;;5010041;28;20357;-76
2022/03/29 08:50:09;;;;;;;45.53;18.63;;;7.50;99.90;;;;;;5027703;28;20336;-75
2022/03/29 08:52:35;;;;;;;50.07;20.47;;;7.70;99.90;;;;;;5012443;28;20642;-76
2022/03/29 08:55:03;;;;;;;46.70;19.97;;;7.70;99.90;;;;;;5027028;28;20321;-75
2022/03/29 08:57:30;;;;;;;46.67;19.50;;;7.70;99.90;;;;;;5010989;28;20180;-76
2022/03/29 08:59:56;;;;;;;55.30;20.43;;;7.90;99.90;;;;;;5026001;28;20688;-76
2022/03/29 09:02:22;;;;;;;50.63;20.53;;;7.60;99.90;;;;;;5024967;28;20185;-76
2022/03/29 09:05:15;;;;;;;55.23;19.93;;;7.80;99.90;;;;;;5027433;28;20181;-75
2022/03/29 09:07:52;;;;;;;45.17;20.67;;;7.90;99.90;;;;;;5027720;28;20562;-75
2022/03/29 09:10:20;;;;;;;53.47;20.67;;;8.10;99.90;;;;;;5027452;28;20209;-75
2022/03/29 09:12:46;;;;;;;50.90;20.40;;;8.20;99.90;;;;;;5027412;28;20184;-76
2022/03/29 09:15:12;;;;;;;50.87;20.80;;;7.90;99.90;;;;;;5026861;28;20181;-76
2022/03/29 09:17:44;;;;;;;45.50;20.77;;;7.90;99.90;;;;;;5027348;28;20185;-75
2022/03/29 09:20:21;;;;;;;49.73;20.50;;;8.00;99.90;;;;;;5027273;28;20255;-75
2022/03/29 09:22:49;;;;;;;45.90;19.80;;;8.30;99.90;;;;;;5027183;28;20666;-75
2022/03/29 09:25:22;;;;;;;49.73;18.70;;;8.40;99.90;;;;;;5027447;28;20242;-75
2022/03/29 09:28:04;;;;;;;47.37;19.33;;;8.30;99.90;;;;;;5026930;28;20271;-75
2022/03/29 09:30:40;;;;;;;44.53;18.93;;;8.60;99.90;;;;;;5026428;28;20205;-75
2022/03/29 09:33:08;;;;;;;48.70;20.47;;;8.50;99.90;;;;;;5010589;28;20636;-76
2022/03/29 09:35:50;;;;;;;45.87;19.60;;;8.60;99.90;;;;;;5026883;28;20799;-74
2022/03/29 09:38:26;;;;;;;45.37;19.57;;;9.10;99.90;;;;;;5027239;28;20225;-76
2022/03/29 09:40:54;;;;;;;47.03;19.77;;;9.50;99.90;;;;;;5027295;28;20212;-76
2022/03/29 09:43:25;;;;;;;44.27;20.30;;;9.30;99.90;;;;;;5027104;28;20180;-77
2022/03/29 09:45:53;;;;;;;42.20;20.00;;;9.10;99.90;;;;;;5027305;28;20177;-75
2022/03/29 09:48:39;;;;;;;49.77;20.30;;;8.90;99.90;;;;;;5026997;28;20175;-77
2022/03/29 09:51:08;;;;;;;43.17;18.93;;;8.90;99.90;;;;;;5027201;28;20180;-76
2022/03/29 09:53:39;;;;;;;41.90;18.77;;;8.80;99.90;;;;;;5010739;28;20181;-75
2022/03/29 09:56:12;;;;;;;45.60;20.30;;;8.60;99.90;;;;;;5026634;28;20180;-75
2022/03/29 09:58:39;;;;;;;44.23;19.13;;;8.60;99.90;;;;;;5010197;28;20205;-76
2022/03/29 10:01:06;;;;;;;47.80;19.80;;;8.90;99.90;;;;;;5026446;28;20199;-76
2022/03/29 10:03:36;;;;;;;44.30;20.43;;;9.50;99.90;;;;;;5026838;28;20173;-75
2022/03/29 10:06:05;;;;;;;49.17;19.90;;;9.50;99.90;;;;;;5026839;28;20177;-75
2022/03/29 10:11:19;;;;;;;47.23;20.00;;;9.50;99.90;;;;;;5011462;28;20666;-76
2022/03/29 10:13:46;;;;;;;47.13;20.40;;;9.40;99.90;;;;;;5026680;28;20602;-75
2022/03/29 10:16:14;;;;;;;47.00;21.40;;;9.60;99.90;;;;;;5026705;28;20182;-76
2022/03/29 10:18:45;;;;;;;46.10;20.60;;;10.30;99.90;;;;;;5026556;28;20260;-76
2022/03/29 10:21:16;;;;;;;44.03;20.70;;;10.70;99.90;;;;;;5026291;28;20553;-77
2022/03/29 10:23:46;;;;;;;43.93;19.97;;;10.80;99.90;;;;;;5026357;28;20179;-75
2022/03/29 10:26:21;;;;;;;45.97;21.23;;;10.00;99.90;;;;;;5026511;28;20183;-76
2022/03/29 10:28:48;;;;;;;44.47;20.50;;;10.50;99.90;;;;;;5026634;28;20209;-75
2022/03/29 10:31:36;;;;;;;42.03;19.60;;;10.80;99.90;;;;;;5026057;28;20230;-76
2022/03/29 10:34:21;;;;;;;45.80;19.97;;;10.40;99.90;;;;;;5026501;28;20181;-77
2022/03/29 10:37:27;;;;;;;41.03;19.23;;;11.10;99.90;;;;;;5026477;28;20172;-76
2022/03/29 10:40:03;;;;;;;42.70;19.63;;;11.00;99.90;;;;;;5026301;28;20610;-76
2022/03/29 10:42:31;;;;;;;41.47;19.97;;;11.30;99.90;;;;;;5028588;28;20175;-75
2022/03/29 10:45:16;;;;;;;43.77;20.77;;;11.20;99.90;;;;;;5012001;28;20172;-75
2022/03/29 10:47:48;;;;;;;43.30;19.43;;;11.40;99.90;;;;;;5029260;28;20173;-76
2022/03/29 10:50:15;;;;;;;43.20;20.40;;;11.90;99.90;;;;;;5029402;28;20250;-76
2022/03/29 10:52:42;;;;;;;45.47;20.47;;;11.60;99.90;;;;;;5029322;28;20206;-76
2022/03/29 10:55:28;;;;;;;36.77;18.37;;;11.40;99.90;;;;;;5029830;28;20666;-76
2022/03/29 10:58:12;;;;;;;37.43;19.53;;;11.70;99.90;;;;;;5030109;28;20201;-76
2022/03/29 11:00:45;;;;;;;43.33;20.93;;;11.90;99.80;;;;;;5029835;28;20214;-76
2022/03/29 11:03:12;;;;;;;38.53;19.27;;;11.90;99.80;;;;;;5029855;28;20647;-77
2022/03/29 11:06:10;;;;;;;46.13;19.63;;;12.10;99.10;;;;;;5029741;28;20501;-76
2022/03/29 11:08:41;;;;;;;45.57;20.50;;;11.80;98.60;;;;;;5029004;28;20227;-76
2022/03/29 11:11:28;;;;;;;40.23;20.20;;;11.70;99.40;;;;;;5029508;28;20240;-76
2022/03/29 11:13:53;;;;;;;49.73;20.17;;;11.60;99.90;;;;;;5014545;28;20177;-78
2022/03/29 11:16:37;;;;;;;44.13;19.57;;;11.90;98.80;;;;;;5029786;28;20189;-77
2022/03/29 11:19:03;;;;;;;46.20;19.17;;;12.30;99.90;;;;;;5013378;28;20289;-76
2022/03/29 11:21:39;;;;;;;39.77;19.17;;;12.90;97.20;;;;;;5029393;28;20297;-77
2022/03/29 11:24:10;;;;;;;39.83;19.30;;;13.00;96.30;;;;;;5013324;28;20173;-76
2022/03/29 11:26:37;;;;;;;52.73;21.90;;;13.00;97.70;;;;;;5029544;28;20185;-75
2022/03/29 11:29:06;;;;;;;55.13;24.00;;;13.00;96.40;;;;;;5029701;28;20603;-77
2022/03/29 11:31:35;;;;;;;57.20;21.73;;;13.20;95.00;;;;;;5029300;28;20202;-76
2022/03/29 11:34:02;;;;;;;41.17;18.73;;;13.40;97.10;;;;;;5029616;28;20185;-76
2022/03/29 11:36:28;;;;;;;34.77;17.80;;;13.80;95.00;;;;;;5029803;28;20179;-77
2022/03/29 11:38:53;;;;;;;37.57;19.17;;;14.00;95.30;;;;;;5030188;28;20201;-77
2022/03/29 11:41:28;;;;;;;36.47;18.37;;;13.70;94.80;;;;;;5030266;28;20201;-76
2022/03/29 11:43:57;;;;;;;40.00;18.70;;;14.20;93.80;;;;;;5029702;28;20241;-76
2022/03/29 11:46:23;;;;;;;40.67;20.20;;;14.90;92.10;;;;;;5012637;28;20198;-76
2022/03/29 11:48:50;;;;;;;34.27;17.87;;;15.10;91.00;;;;;;5029015;28;20195;-75
2022/03/29 11:51:17;;;;;;;34.47;17.53;;;14.90;90.00;;;;;;5028820;28;20175;-76
2022/03/29 11:53:43;;;;;;;35.83;17.93;;;14.40;88.60;;;;;;5028357;28;20175;-76
2022/03/29 11:56:19;;;;;;;35.23;18.80;;;13.90;90.50;;;;;;5029011;28;20206;-75
2022/03/29 11:58:55;;;;;;;35.17;17.87;;;13.20;91.40;;;;;;5028880;28;20201;-77
2022/03/29 12:01:25;;;;;;;40.73;18.80;;;13.50;91.20;;;;;;5028761;28;20194;-77
2022/03/29 12:03:56;;;;;;;39.80;19.00;;;13.70;92.10;;;;;;5028741;28;20170;-77
2022/03/29 12:06:25;;;;;;;44.03;19.27;;;13.40;92.80;;;;;;5029190;28;20640;-79
2022/03/29 12:09:03;;;;;;;41.20;18.30;;;13.50;91.90;;;;;;5028286;28;20215;-78
2022/03/29 12:11:35;;;;;;;75.87;18.93;;;13.10;92.70;;;;;;5028623;28;20167;-76
2022/03/29 12:14:03;;;;;;;35.13;17.63;;;13.10;92.30;;;;;;5028553;28;20171;-75
2022/03/29 12:16:31;;;;;;;43.10;19.63;;;13.80;92.60;;;;;;5009943;28;20666;-74
2022/03/29 12:18:57;;;;;;;42.80;19.37;;;14.10;92.10;;;;;;5010939;28;20198;-75
2022/03/29 12:21:24;;;;;;;38.97;18.57;;;14.70;90.80;;;;;;5029247;28;20566;-83
2022/03/29 12:24:07;;;;;;;34.03;18.17;;;15.00;88.00;;;;;;5031524;28;20221;-84
2022/03/29 12:26:37;;;;;;;33.20;18.40;;;15.50;87.50;;;;;;5031236;28;20261;-84
2022/03/29 12:29:08;;;;;;;37.30;17.63;;;15.10;89.60;;;;;;5032353;28;20222;-83
2022/03/29 12:31:36;;;;;;;36.10;17.63;;;14.50;90.10;;;;;;5031892;28;20643;-84
2022/03/29 12:34:01;;;;;;;33.30;18.30;;;14.50;87.30;;;;;;5033386;28;20580;-84
2022/03/29 12:36:28;;;;;;;33.00;16.70;;;14.90;87.10;;;;;;5033631;28;20233;-85
2022/03/29 12:38:59;;;;;;;36.10;18.88;;;13.70;86.00;;;;;;5031819;28;20502;-85
2022/03/29 12:41:34;;;;;;;31.87;17.40;;;13.60;87.20;;;;;;5016443;28;20189;-85
2022/03/29 12:44:01;;;;;;;29.90;16.50;;;13.70;89.00;;;;;;5012960;28;20563;-84
2022/03/29 12:46:28;;;;;;;34.40;18.57;;;13.20;90.40;;;;;;5028883;28;20191;-84
2022/03/29 12:48:58;;;;;;;34.90;17.53;;;13.50;88.10;;;;;;5028850;28;20277;-84
2022/03/29 12:51:35;;;;;;;31.50;16.87;;;13.40;89.00;;;;;;5030474;28;20174;-85